Airways and Terminal Forecast

Significant Meteorological Information

Terminal Aerodrome Forecast

TAF RPLL

160500Z 1606/1712 10006KT 9999 FEW025 SCT100 TX31/1607Z TN25/1621Z TEMPO 1606/1612 SCT023 BKN100 TEMPO 1612/1618 VRB02KT FEW023 SCT100=

TAF RPVM

160500Z 1606/1712 35006KT 9999 FEW020 BKN300 TEMPO 1606/1612 05009KT -SHRA FEW018CB FEW020 OVC100 TEMPO 1612/1618 03008KT 8000 -RA FEW018CB OVC090=

TAF RPLC

160500Z 1606/1712 05006KT 9999 FEW020 BKN300 TX31/1606Z TN23/1621Z TEMPO 1606/1612 12008KT SCT020 BKN100=

TAF RPLB

160500Z 1606/1706 06008KT 9999 FEW020 TX32/1606Z TN24/1622Z TEMPO 1606/1612 05011KT SCT020 BKN080=

TAF RPLI

160500Z 1606/1706 03008KT 9999 FEW018 TEMPO 1606/1612 36012KT FEW018 SCT290=

TAF RPVP

160500Z 1606/1706 09006KT 9999 FEW019 SCT240 TEMPO 1606/1612 36012KT -SHRA FEW017CB SCT019 BKN080=

TAF RPVD

160500Z 1606/1706 32008KT 9999 FEW015 SCT070 BKN220 TEMPO 1606/1612 36010KT -SHRA FEW014CB SCT015 BKN070=

TAF RPMR

160500Z 1606/1706 08006KT 9999 FEW018 BKN080 TEMPO 1606/1612 16010KT -SHRA FEW017CB SCT018 OVC080=

TAF RPMD

160500Z 1606/1706 02006KT 9999 FEW016 SCT090 BKN290 TEMPO 1606/1612 15008KT 8000 -TSRA FEW015CB SCT016 BKN090=

TAF RPMZ

160500Z 1606/1706 26006KT 9999 FEW017 SCT090 TEMPO 1606/1612 29010KT -SHRA FEW016CB FEW017 OVC090=

 

RPLL FORECAST TAKE-OFF CONDITION

TIME

(UTC)

WIND

(dddffKT)

TEMP

(°C)

QNH

(hPa)

TIME

(UTC)

WIND

(dddffKT)

TEMP

(°C)

QNH

(hPa)

0600

   10008KT

30.0

1007.0

1000

11007KT

27.0

1009.0

0700

12006KT

30.0

1007.0

1100

10008KT

27.0

1009.0

0800

11009KT

29.0

1008.0

1200

10008KT

27.0

1008.0

0900

10010KT

29.0

1009.0

1300

12009KT

26.0

1008.0

 

ISSUED AT NAIA AMSS-WD/PAGASA-DOST FOR 0500UTC 16 JANUARY 2021

PREPARED BY:    CRSED                                                                                                              

CHECKED BY:      SSDH